Bearville, Kentucky
Current Conditions -  °F | °C
As of 3:34 AM on Saturday 01 Nov 2014 (Local Time) from KJKL Reporting Station
Light Snow Light Snow  
Wind Chill: 28°   Ceiling: 500
Heat Index: 34°   Visibility: 4mi
Dew Point: 32°   Wind: 7mph
Humidity: 92%   Direction: NA
Pressure: 29.92"   Gusts: NA
Location:  37.3261°N, 83.0685°W
Report Text: KJKL 010734Z AUTO VRB06KT 4SM -SN BR OVC005 01/00 A2992 RMK AO2 CIG 003V009 P0001 T00110000
Loading
Personal Weather Stations






























Interactive Weather Map
Tropical Storm Tracking
New forecast layout! Learn more

10-Day Weather Forecast

Advertisements
Track Severe Weather on mobile